Portada
METAR-TAF:

METAR-TAF

Aeropuertos :

Aeropuerto Internacional Netaji Subhas Chandra Bose

Calcuta, India

latitud: 22-39N, longitud: 088-27E, altitud: 4 m

Observación

El informe se hizo hace 18 minutos, a las 17:00 UTC
Viento 4 kt del este-sureste
Temperatura 20°C
Humedad 94%
Presión 1013 hPa
Visibilidad: 3200 m
Nubes dispersas a una altura de 2000 ft
Cielo nuboso a una altura de 10000 ft
calima

METAR: VECC 111700Z 11004KT 3200 HZ SCT020 BKN100 20/19 Q1013 NOSIG

Hora: 22:48 (17:18 UTC)

Pronóstico

El informe se hizo hace 3 horas y 18 minutos, a las 14:00 UTC
Pronóstico válido del 11 a las 15 UTC al 11 a las 24 UTC
Viento 5 kt del sur-sureste
Visibilidad: 2800 m
Nubes dispersas a una altura de 2000 ft
Cielo nuboso a una altura de 10000 ft
calima

TAF: VECC 111400Z 1115/1124 15005KT 2800 HZ SCT020 BKN100

Observaciones y pronósticos meteorológicos de más de 4000 aeropuertos (mensajes METAR y TAF).

Los puntos amarillos y rojos representan las estaciones disponibles.

Ponga el ratón en el punto deseado para ver el nombre de la estación.

Haga clic para ver las observaciones y los pronósticos meteorológicos.

Para cambiar el mapa : haga clic en los botones verdes con una cruz de color negro para hacer un zoom, en el botón verde con un guión para alejar o en las flechas verdes para mapas adyacentes.


METAR-TAF: